createdAt,value
2022-10-31T00:01:32.927Z,12.93
2022-10-31T00:04:00.642Z,15.73
2022-10-31T00:06:28.844Z,12.20
2022-10-31T00:09:01.416Z,16.27
2022-10-31T00:11:29.902Z,14.55
2022-10-31T00:14:01.126Z,14.65
2022-10-31T00:16:30.043Z,13.65
2022-10-31T00:19:00.426Z,13.27
2022-10-31T00:21:28.607Z,12.02
2022-10-31T00:23:56.343Z,11.25
2022-10-31T00:26:24.255Z,13.43
2022-10-31T00:28:52.184Z,11.48
2022-10-31T00:31:19.945Z,17.48
2022-10-31T00:33:47.631Z,13.20
2022-10-31T00:36:20.226Z,13.82
2022-10-31T00:38:48.772Z,12.60
2022-10-31T00:41:18.052Z,13.38
2022-10-31T00:43:45.798Z,13.23
2022-10-31T00:46:14.582Z,12.52
2022-10-31T00:48:43.405Z,12.60
2022-10-31T00:51:11.606Z,13.40
2022-10-31T00:53:40.780Z,12.30
2022-10-31T00:56:08.563Z,12.07
2022-10-31T00:58:38.097Z,12.63
2022-10-31T01:01:06.041Z,14.52
2022-10-31T01:03:36.421Z,13.95
2022-10-31T01:06:08.437Z,13.35
2022-10-31T01:08:37.907Z,12.90
2022-10-31T01:11:15.033Z,13.60
2022-10-31T01:13:42.887Z,14.13
2022-10-31T01:16:14.326Z,13.23
2022-10-31T01:18:42.077Z,14.35
2022-10-31T01:21:21.419Z,15.13
2022-10-31T01:23:51.381Z,16.33
2022-10-31T01:26:31.813Z,14.18
2022-10-31T01:29:06.660Z,14.50
2022-10-31T01:31:38.735Z,12.75
2022-10-31T01:34:07.837Z,15.05
2022-10-31T01:36:38.784Z,13.88
2022-10-31T01:39:10.365Z,12.88
2022-10-31T01:41:41.138Z,10.90
2022-10-31T01:44:15.647Z,15.95
2022-10-31T01:46:48.090Z,15.60
2022-10-31T01:49:37.456Z,11.57
2022-10-31T01:52:10.954Z,11.55
2022-10-31T01:54:46.554Z,14.48
2022-10-31T01:57:16.404Z,13.70
2022-10-31T01:59:50.452Z,13.82
2022-10-31T02:02:20.020Z,14.63
2022-10-31T02:04:48.903Z,15.52
2022-10-31T02:07:28.620Z,12.80
2022-10-31T02:10:01.278Z,17.33
2022-10-31T02:12:31.784Z,13.32
2022-10-31T02:15:01.864Z,14.95
2022-10-31T02:17:31.708Z,11.07
2022-10-31T02:20:22.248Z,9.93
2022-10-31T02:23:32.967Z,12.93
2022-10-31T02:26:29.199Z,12.30
2022-10-31T02:29:16.732Z,10.60
2022-10-31T02:32:07.444Z,10.93
2022-10-31T02:34:47.228Z,10.85
2022-10-31T02:37:35.322Z,10.93
2022-10-31T02:40:16.120Z,13.85
2022-10-31T02:45:51.200Z,12.35
2022-10-31T02:48:28.315Z,11.65
2022-10-31T02:51:04.856Z,10.57
2022-10-31T02:53:37.376Z,15.13
2022-10-31T02:56:19.675Z,10.75
2022-10-31T02:58:58.668Z,9.75
2022-10-31T03:01:45.669Z,12.13
2022-10-31T03:04:13.386Z,14.20
2022-10-31T03:07:00.788Z,10.73
2022-10-31T03:09:55.059Z,10.27
2022-10-31T03:12:29.298Z,10.13
2022-10-31T03:15:20.791Z,12.10
2022-10-31T03:18:01.909Z,13.25
2022-10-31T03:20:43.049Z,11.77
2022-10-31T03:23:16.203Z,8.68
2022-10-31T03:25:48.928Z,9.18
2022-10-31T03:28:23.272Z,10.05
2022-10-31T03:30:53.459Z,12.98
2022-10-31T03:33:31.251Z,10.88
2022-10-31T03:36:04.088Z,10.77
2022-10-31T03:38:33.767Z,9.07
2022-10-31T03:41:05.964Z,12.35
2022-10-31T03:43:41.827Z,10.98
2022-10-31T03:46:10.138Z,12.52
2022-10-31T03:48:37.867Z,9.73
2022-10-31T03:51:17.704Z,9.93
2022-10-31T03:54:02.598Z,10.00
2022-10-31T03:56:38.602Z,12.45
2022-10-31T03:59:20.395Z,14.93
2022-10-31T04:01:53.122Z,9.95
2022-10-31T04:04:21.985Z,10.02
2022-10-31T04:06:52.538Z,9.68
2022-10-31T04:09:21.726Z,10.43
2022-10-31T04:11:54.232Z,8.52
2022-10-31T04:14:55.463Z,10.35
2022-10-31T04:17:28.801Z,11.82
2022-10-31T04:19:56.584Z,8.70
2022-10-31T04:22:24.466Z,12.05
2022-10-31T04:24:53.532Z,13.45
2022-10-31T04:27:21.150Z,8.25
2022-10-31T04:29:50.871Z,14.05
2022-10-31T04:32:19.476Z,10.73
2022-10-31T04:34:47.234Z,11.10
2022-10-31T04:37:15.026Z,8.98
2022-10-31T04:39:42.715Z,10.35
2022-10-31T04:42:31.880Z,8.73
2022-10-31T04:45:02.049Z,9.55
2022-10-31T04:47:35.402Z,9.85
2022-10-31T04:50:03.609Z,13.32
2022-10-31T04:52:31.798Z,9.68
2022-10-31T04:54:59.527Z,12.50
2022-10-31T04:57:50.880Z,10.05
2022-10-31T05:00:22.388Z,8.43
2022-10-31T05:02:54.134Z,8.55
2022-10-31T05:05:24.758Z,10.05
2022-10-31T05:07:52.892Z,10.60
2022-10-31T05:10:26.657Z,10.73
2022-10-31T05:13:01.496Z,9.43
2022-10-31T05:16:06.484Z,9.55
2022-10-31T05:19:06.790Z,11.85
2022-10-31T05:21:54.873Z,9.32
2022-10-31T05:24:22.843Z,10.00
2022-10-31T05:26:50.822Z,10.90
2022-10-31T05:29:18.869Z,10.40
2022-10-31T05:31:46.482Z,9.70
2022-10-31T05:37:20.320Z,9.57
2022-10-31T05:39:48.442Z,9.55
2022-10-31T05:42:17.727Z,13.13
2022-10-31T05:44:45.391Z,12.30
2022-10-31T05:47:21.481Z,12.93
2022-10-31T05:50:25.409Z,12.70
2022-10-31T05:53:07.277Z,14.52
2022-10-31T05:55:40.546Z,11.80
2022-10-31T05:58:18.052Z,16.98
2022-10-31T06:00:52.290Z,13.07
2022-10-31T06:03:20.065Z,11.20
2022-10-31T06:05:55.381Z,11.10
2022-10-31T06:08:26.571Z,12.10
2022-10-31T06:10:55.903Z,11.52
2022-10-31T06:13:46.513Z,9.82
2022-10-31T06:16:20.377Z,12.32
2022-10-31T06:18:48.608Z,15.68
2022-10-31T06:21:18.945Z,14.55
2022-10-31T06:23:48.325Z,13.57
2022-10-31T06:26:51.268Z,11.95
2022-10-31T06:29:19.029Z,15.55
2022-10-31T06:32:02.877Z,9.23
2022-10-31T06:34:32.112Z,9.65
2022-10-31T06:37:00.337Z,10.73
2022-10-31T06:39:29.539Z,15.63
2022-10-31T06:41:57.348Z,9.60
2022-10-31T06:44:27.351Z,11.65
2022-10-31T06:47:01.205Z,9.15
2022-10-31T06:49:52.122Z,7.82
2022-10-31T06:52:24.480Z,14.45
2022-10-31T06:54:52.797Z,9.30
2022-10-31T06:57:22.097Z,11.23
2022-10-31T06:59:50.448Z,8.40
2022-10-31T07:02:38.430Z,12.70
2022-10-31T07:05:07.273Z,13.32
2022-10-31T07:07:34.864Z,11.48
2022-10-31T07:10:02.757Z,11.45
2022-10-31T07:12:45.525Z,12.00
2022-10-31T07:15:13.228Z,10.70
2022-10-31T07:17:40.985Z,11.30
2022-10-31T07:20:11.031Z,13.52
2022-10-31T07:22:38.981Z,12.07
2022-10-31T07:25:09.934Z,7.72
2022-10-31T07:27:42.976Z,10.18
2022-10-31T07:30:14.397Z,12.40
2022-10-31T07:32:49.313Z,13.32
2022-10-31T07:35:21.875Z,10.00
2022-10-31T07:37:58.470Z,12.77
2022-10-31T07:40:27.233Z,18.88
2022-10-31T07:42:55.288Z,26.90
2022-10-31T07:45:53.316Z,40.10
2022-10-31T07:48:39.694Z,31.90
2022-10-31T07:51:26.036Z,39.33
2022-10-31T07:54:06.215Z,41.70
2022-10-31T07:56:36.824Z,39.65
2022-10-31T07:59:04.662Z,26.52
2022-10-31T08:01:32.391Z,20.75
2022-10-31T08:04:32.177Z,13.55
2022-10-31T08:07:22.732Z,14.77
2022-10-31T08:09:57.446Z,11.50
2022-10-31T08:12:29.632Z,15.45
2022-10-31T08:14:57.377Z,12.18
2022-10-31T08:17:25.115Z,10.38
2022-10-31T08:19:57.485Z,15.38
2022-10-31T08:22:41.223Z,10.38
2022-10-31T08:25:11.735Z,20.30
2022-10-31T08:27:41.414Z,19.05
2022-10-31T08:30:17.034Z,14.05
2022-10-31T08:33:05.538Z,17.25
2022-10-31T08:38:38.090Z,13.00
2022-10-31T08:41:05.995Z,11.82
2022-10-31T08:43:33.704Z,12.15
2022-10-31T08:46:01.656Z,18.33
2022-10-31T08:48:30.515Z,10.32
2022-10-31T08:50:59.330Z,17.70
2022-10-31T08:53:28.328Z,12.60
2022-10-31T08:56:16.021Z,16.33
2022-10-31T08:58:44.007Z,18.02
2022-10-31T09:01:12.598Z,13.18
2022-10-31T09:03:40.480Z,20.60
2022-10-31T09:06:10.231Z,17.52
2022-10-31T09:08:38.819Z,18.35
2022-10-31T09:11:07.917Z,16.95
2022-10-31T09:14:03.362Z,13.10
2022-10-31T09:16:33.814Z,12.18
2022-10-31T09:19:02.988Z,15.73
2022-10-31T09:21:32.932Z,12.75
2022-10-31T09:24:00.587Z,13.20
2022-10-31T09:26:28.319Z,14.15
2022-10-31T09:29:28.064Z,13.02
2022-10-31T09:31:59.994Z,16.75
2022-10-31T09:34:30.154Z,11.50
2022-10-31T09:37:10.015Z,17.42
2022-10-31T09:39:37.703Z,16.45
2022-10-31T09:43:01.510Z,23.25
2022-10-31T09:45:43.074Z,17.00
2022-10-31T09:48:44.332Z,15.60
2022-10-31T09:51:29.487Z,17.60
2022-10-31T09:54:44.349Z,14.38
2022-10-31T09:57:15.963Z,14.98
2022-10-31T09:59:50.440Z,16.05
2022-10-31T10:02:36.095Z,12.63
2022-10-31T10:05:17.146Z,13.25
2022-10-31T10:07:56.589Z,16.50
2022-10-31T10:11:21.240Z,11.15
2022-10-31T10:14:15.407Z,16.98
2022-10-31T10:17:07.725Z,13.55
2022-10-31T10:20:09.177Z,17.45
2022-10-31T10:22:36.911Z,12.90
2022-10-31T10:25:14.071Z,15.90
2022-10-31T10:28:14.131Z,11.25
2022-10-31T10:30:45.954Z,13.27
2022-10-31T10:33:19.462Z,11.55
2022-10-31T10:35:54.877Z,14.32
2022-10-31T10:38:53.453Z,11.60
2022-10-31T10:41:29.330Z,14.10
2022-10-31T10:43:59.481Z,13.93
2022-10-31T10:47:00.702Z,14.07
2022-10-31T10:49:40.981Z,12.25
2022-10-31T10:52:51.288Z,12.13
2022-10-31T10:55:34.977Z,15.20
2022-10-31T10:58:07.404Z,14.07
2022-10-31T11:00:51.079Z,13.40
2022-10-31T11:03:20.443Z,26.40
2022-10-31T11:05:54.871Z,16.70
2022-10-31T11:08:27.476Z,19.73
2022-10-31T11:11:02.753Z,15.88
2022-10-31T11:13:31.620Z,14.15
2022-10-31T11:16:28.719Z,14.35
2022-10-31T11:19:09.289Z,14.32
2022-10-31T11:21:37.088Z,12.23
2022-10-31T11:24:10.823Z,16.15
2022-10-31T11:26:40.559Z,14.82
2022-10-31T11:29:34.564Z,14.63
2022-10-31T11:32:02.545Z,15.75
2022-10-31T11:34:34.488Z,13.27
2022-10-31T11:37:17.195Z,14.82
2022-10-31T11:39:54.448Z,14.70
2022-10-31T11:42:24.458Z,18.02
2022-10-31T11:44:54.633Z,18.52
2022-10-31T11:47:30.383Z,20.38
2022-10-31T11:49:58.937Z,12.98
2022-10-31T11:52:29.473Z,14.50
2022-10-31T11:55:22.800Z,14.40
2022-10-31T11:57:52.991Z,17.27
2022-10-31T12:00:25.635Z,14.70
2022-10-31T12:03:23.308Z,15.80
2022-10-31T12:05:55.018Z,13.32
2022-10-31T12:08:22.991Z,14.15
2022-10-31T12:10:53.930Z,13.40
2022-10-31T12:13:35.888Z,17.10
2022-10-31T12:16:16.134Z,20.95
2022-10-31T12:18:52.868Z,19.48
2022-10-31T12:24:19.312Z,15.35
2022-10-31T12:27:02.373Z,26.50
2022-10-31T12:29:51.795Z,14.65
2022-10-31T12:32:32.030Z,12.85
2022-10-31T12:35:21.093Z,10.75
2022-10-31T12:38:02.553Z,14.98
2022-10-31T12:41:11.056Z,17.00
2022-10-31T12:43:58.905Z,12.25
2022-10-31T12:46:56.529Z,15.45
2022-10-31T12:50:01.862Z,19.92
2022-10-31T12:52:47.896Z,21.38
2022-10-31T12:55:32.921Z,20.67
2022-10-31T12:58:11.164Z,11.45
2022-10-31T13:00:46.237Z,15.68
2022-10-31T13:03:35.287Z,15.80
2022-10-31T13:06:15.006Z,16.48
2022-10-31T13:09:07.408Z,16.55
2022-10-31T13:11:47.133Z,13.45
2022-10-31T13:14:49.231Z,18.38
2022-10-31T13:17:38.136Z,21.95
2022-10-31T13:20:14.732Z,23.90
2022-10-31T13:22:47.483Z,20.73
2022-10-31T13:25:21.599Z,15.50
2022-10-31T13:28:03.915Z,16.17
2022-10-31T13:30:37.688Z,22.42
2022-10-31T13:33:21.796Z,14.93
2022-10-31T13:35:52.583Z,13.75
2022-10-31T13:38:32.020Z,9.38
2022-10-31T13:41:06.463Z,17.45
2022-10-31T13:44:04.006Z,17.77
2022-10-31T13:46:35.109Z,19.52
2022-10-31T13:49:03.673Z,18.33
2022-10-31T13:51:36.256Z,16.27
2022-10-31T13:54:24.371Z,14.07
2022-10-31T13:56:54.131Z,13.57
2022-10-31T13:59:32.259Z,13.25
2022-10-31T14:02:03.480Z,17.90
2022-10-31T14:04:39.264Z,16.52
2022-10-31T14:07:32.641Z,14.77
2022-10-31T14:10:27.501Z,16.05
2022-10-31T14:13:05.902Z,19.98
2022-10-31T14:15:34.199Z,14.75
2022-10-31T14:18:07.949Z,12.65
2022-10-31T14:20:43.983Z,20.20
2022-10-31T14:23:36.921Z,15.05
2022-10-31T14:26:29.419Z,15.95
2022-10-31T14:29:21.428Z,16.35
2022-10-31T14:31:56.604Z,12.13
2022-10-31T14:34:38.764Z,16.38
2022-10-31T14:37:45.191Z,14.23
2022-10-31T14:40:25.262Z,15.65
2022-10-31T14:43:11.504Z,9.60
2022-10-31T14:46:02.524Z,14.38
2022-10-31T14:48:54.831Z,11.95
2022-10-31T14:51:25.611Z,11.20
2022-10-31T14:53:57.775Z,12.55
2022-10-31T14:56:35.882Z,11.77
2022-10-31T14:59:10.865Z,13.20
2022-10-31T15:01:41.224Z,14.38
2022-10-31T15:04:24.977Z,16.75
2022-10-31T15:07:05.536Z,10.88
2022-10-31T15:09:36.035Z,14.82
2022-10-31T15:12:33.030Z,13.82
2022-10-31T15:15:23.207Z,11.77
2022-10-31T15:17:56.352Z,14.13
2022-10-31T15:20:27.610Z,10.85
2022-10-31T15:22:58.043Z,11.25
2022-10-31T15:25:29.555Z,12.45
2022-10-31T15:27:57.911Z,9.13
2022-10-31T15:30:31.792Z,19.83
2022-10-31T15:32:59.638Z,18.77
2022-10-31T15:35:29.698Z,12.48
2022-10-31T15:38:00.164Z,14.65
2022-10-31T15:40:29.343Z,11.05
2022-10-31T15:43:00.776Z,17.23
2022-10-31T15:45:31.358Z,14.15
2022-10-31T15:48:02.815Z,13.73
2022-10-31T15:50:38.897Z,16.10
2022-10-31T15:53:19.224Z,15.73
2022-10-31T15:56:07.709Z,11.15
2022-10-31T15:58:52.384Z,15.52
2022-10-31T16:01:23.572Z,22.08
2022-10-31T16:04:02.532Z,18.75
2022-10-31T16:06:35.840Z,16.13
2022-10-31T16:09:18.945Z,12.98
2022-10-31T16:11:46.703Z,14.45
2022-10-31T16:14:14.469Z,15.23
2022-10-31T16:16:45.203Z,17.83
2022-10-31T16:19:25.216Z,16.20
2022-10-31T16:21:56.998Z,16.70
2022-10-31T16:24:38.362Z,11.45
2022-10-31T16:27:15.091Z,12.10
2022-10-31T16:29:45.719Z,12.88
2022-10-31T16:33:00.992Z,15.38
2022-10-31T16:35:38.918Z,14.80
2022-10-31T16:38:06.988Z,11.63
2022-10-31T16:40:35.818Z,12.63
2022-10-31T16:43:03.847Z,14.82
2022-10-31T16:45:33.449Z,12.90
2022-10-31T16:48:07.654Z,13.95
2022-10-31T16:50:36.302Z,13.85
2022-10-31T16:53:19.235Z,14.77
2022-10-31T16:55:59.627Z,15.93
2022-10-31T16:58:34.242Z,13.27
2022-10-31T17:01:07.012Z,15.23
2022-10-31T17:03:35.106Z,13.05
2022-10-31T17:06:04.093Z,14.00
2022-10-31T17:08:35.168Z,13.40
2022-10-31T17:11:03.178Z,14.60
2022-10-31T17:13:32.758Z,16.75
2022-10-31T17:16:04.867Z,12.90
2022-10-31T17:18:32.720Z,11.23
2022-10-31T17:21:06.336Z,14.68
2022-10-31T17:23:34.081Z,16.55
2022-10-31T17:26:01.903Z,13.32
2022-10-31T17:28:29.588Z,12.02
2022-10-31T17:30:59.534Z,12.02
2022-10-31T17:33:28.102Z,17.75
2022-10-31T17:35:55.725Z,15.13
2022-10-31T17:38:23.771Z,14.30
2022-10-31T17:40:51.583Z,17.38
2022-10-31T17:43:19.329Z,13.35
2022-10-31T17:45:47.626Z,17.27
2022-10-31T17:48:15.199Z,15.68
2022-10-31T17:50:42.943Z,13.95
2022-10-31T17:53:10.724Z,12.15
2022-10-31T17:55:38.443Z,13.65
2022-10-31T17:58:06.294Z,14.43
2022-10-31T18:00:34.278Z,13.38
2022-10-31T18:03:04.089Z,14.18
2022-10-31T18:05:32.368Z,13.48
2022-10-31T18:08:03.660Z,13.88
2022-10-31T18:10:32.457Z,18.23
2022-10-31T18:13:00.511Z,15.35
2022-10-31T18:15:28.407Z,16.95
2022-10-31T18:17:56.129Z,18.40
2022-10-31T18:20:23.677Z,19.45
2022-10-31T18:22:52.140Z,15.80
2022-10-31T18:25:19.728Z,19.30
2022-10-31T18:27:47.414Z,16.30
2022-10-31T18:30:15.306Z,19.20
2022-10-31T18:32:43.467Z,15.70
2022-10-31T18:35:11.056Z,21.15
2022-10-31T18:37:38.777Z,18.38
2022-10-31T18:40:06.996Z,20.95
2022-10-31T18:42:34.980Z,20.27
2022-10-31T18:45:11.524Z,29.90
2022-10-31T18:47:46.334Z,27.27
2022-10-31T18:50:14.134Z,32.75
2022-10-31T18:52:42.316Z,28.77
2022-10-31T18:55:10.201Z,25.38
2022-10-31T18:57:38.003Z,23.38
2022-10-31T19:00:06.943Z,22.45
2022-10-31T19:02:34.793Z,15.90
2022-10-31T19:05:02.620Z,21.23
2022-10-31T19:07:30.469Z,16.63
2022-10-31T19:09:58.132Z,14.48
2022-10-31T19:12:25.797Z,16.67
2022-10-31T19:14:53.534Z,14.57
2022-10-31T19:17:21.337Z,14.50
2022-10-31T19:19:49.142Z,15.60
2022-10-31T19:22:16.820Z,16.15
2022-10-31T19:24:44.558Z,14.07
2022-10-31T19:27:13.912Z,15.27
2022-10-31T19:29:43.075Z,16.13
2022-10-31T19:32:10.900Z,18.48
2022-10-31T19:34:39.265Z,19.73
2022-10-31T19:37:06.987Z,18.33
2022-10-31T19:39:39.808Z,20.92
2022-10-31T19:42:10.713Z,15.50
2022-10-31T19:44:38.507Z,17.08
2022-10-31T19:47:06.104Z,18.27
2022-10-31T19:49:33.717Z,19.02
2022-10-31T19:52:01.561Z,17.38
2022-10-31T19:54:29.128Z,19.52
2022-10-31T19:56:57.086Z,16.45
2022-10-31T19:59:26.021Z,17.10
2022-10-31T20:01:53.746Z,21.35
2022-10-31T20:04:22.112Z,18.73
2022-10-31T20:06:50.059Z,18.80
2022-10-31T20:09:18.164Z,23.73
2022-10-31T20:11:46.441Z,16.38
2022-10-31T20:14:17.012Z,17.98
2022-10-31T20:16:45.720Z,18.38
2022-10-31T20:19:13.892Z,14.05
2022-10-31T20:21:41.985Z,20.85
2022-10-31T20:24:11.141Z,18.73
2022-10-31T20:26:41.091Z,23.33
2022-10-31T20:29:12.342Z,20.20
2022-10-31T20:31:40.327Z,19.13
2022-10-31T20:34:08.077Z,17.08
2022-10-31T20:36:36.831Z,17.70
2022-10-31T20:39:05.214Z,20.17
2022-10-31T20:41:32.818Z,15.82
2022-10-31T20:44:00.674Z,17.88
2022-10-31T20:46:28.533Z,16.65
2022-10-31T20:48:56.328Z,15.60
2022-10-31T20:51:27.569Z,16.10
2022-10-31T20:53:56.770Z,15.63
2022-10-31T20:56:26.683Z,19.60
2022-10-31T20:58:56.220Z,14.40
2022-10-31T21:01:27.594Z,14.93
2022-10-31T21:03:56.091Z,20.60
2022-10-31T21:06:23.776Z,26.02
2022-10-31T21:08:52.176Z,24.98
2022-10-31T21:11:22.776Z,22.75
2022-10-31T21:13:51.294Z,16.63
2022-10-31T21:16:21.334Z,16.33
2022-10-31T21:18:50.116Z,16.73
2022-10-31T21:21:32.179Z,15.63
2022-10-31T21:24:13.788Z,14.18
2022-10-31T21:26:44.641Z,14.20
2022-10-31T21:29:13.484Z,15.45
2022-10-31T21:31:41.773Z,16.92
2022-10-31T21:34:09.668Z,19.23
2022-10-31T21:36:39.907Z,14.70
2022-10-31T21:39:11.493Z,14.35
2022-10-31T21:41:39.312Z,15.23
2022-10-31T21:44:06.963Z,11.13
2022-10-31T21:46:35.256Z,13.35
2022-10-31T21:49:04.070Z,14.27
2022-10-31T21:51:34.566Z,14.57
2022-10-31T21:54:21.082Z,14.07
2022-10-31T21:56:49.028Z,14.38
2022-10-31T21:59:16.730Z,18.33
2022-10-31T22:01:46.490Z,17.98
2022-10-31T22:04:14.332Z,16.27
2022-10-31T22:06:43.412Z,17.67
2022-10-31T22:09:14.192Z,11.52
2022-10-31T22:11:43.271Z,11.77
2022-10-31T22:14:13.288Z,15.50
2022-10-31T22:16:41.567Z,14.65
2022-10-31T22:19:12.357Z,15.05
2022-10-31T22:21:46.628Z,12.30
2022-10-31T22:24:15.373Z,14.38
2022-10-31T22:26:43.193Z,16.48
2022-10-31T22:29:14.225Z,13.73
2022-10-31T22:31:44.592Z,17.58
2022-10-31T22:34:13.526Z,19.15
2022-10-31T22:36:42.084Z,18.42
2022-10-31T22:39:12.965Z,14.75
2022-10-31T22:41:41.032Z,17.00
2022-10-31T22:44:08.756Z,15.60
2022-10-31T22:46:38.677Z,13.23
2022-10-31T22:49:10.543Z,15.23
2022-10-31T22:51:39.682Z,11.95
2022-10-31T22:54:11.506Z,13.45
2022-10-31T22:56:39.212Z,14.63
2022-10-31T22:59:07.021Z,14.88
2022-10-31T23:01:34.760Z,15.55
2022-10-31T23:04:02.988Z,15.05
2022-10-31T23:06:32.562Z,16.42
2022-10-31T23:09:02.002Z,16.38
2022-10-31T23:11:35.199Z,16.85
2022-10-31T23:14:14.170Z,18.42
2022-10-31T23:16:46.287Z,13.73
2022-10-31T23:19:21.487Z,14.50
2022-10-31T23:21:54.836Z,13.88
2022-10-31T23:24:29.646Z,16.67
2022-10-31T23:27:10.611Z,13.73
2022-10-31T23:29:58.500Z,14.48
2022-10-31T23:32:27.212Z,14.77
2022-10-31T23:35:03.610Z,14.65
2022-10-31T23:37:34.847Z,14.50
2022-10-31T23:40:05.196Z,14.32
2022-10-31T23:42:32.842Z,11.57
2022-10-31T23:45:00.565Z,10.85
2022-10-31T23:47:28.279Z,11.13
2022-10-31T23:49:57.227Z,16.05
2022-10-31T23:52:24.939Z,11.10
2022-10-31T23:54:52.678Z,12.63
2022-10-31T23:57:20.249Z,13.80
2022-10-31T23:59:48.123Z,11.70
